map of JEF home
JEF - Airport
Location
City:  Jefferson City, Missouri, United States
Name:Jefferson City Memorial Airport
ICAO:KJEF
IATA:JEF
FAA LID:JEF

Details
Type:Airport (Airfield)
Use:Public/Civil
Latitude:3835'28"N (38.591179)
Longitude:9209'22"W (-92.156143)
Datum:WGS 1984
Elevation:549 ft (167 m)
Variation:0.09W (WMM2015 magnetic declination)
-0.09 annual change
Runways:2
Longest:6001 × 100 ft (1829 × 30.5 m), paved

Time
Time Zone:UTC-6 (DST-5)
Local Time:

Weather
METAR:KJEF 241153Z 06008G17KT 10SM OVC010 04/02 A3000 RMK AO2 RAE23 SLP152 P0001 60016 70044 T00390022 10044 20033 58008

Related Locations
Nearby:
Farthest:MQZ: 10893 mi / 17531 km
Margaret River [Margaret River Airport], WA, AU

Find:

   beyond  
but within

Other Information
Maps:
NOTAMs:
Links:
Sources:

  
flag of United States
flag of Missouri
  

Airport Diagram

Airport diagram for JEF

Airport diagram PDF

Sectional Chart

Flight Planning
at skyvector.com

Satellite Image

Google Maps Satellite view

 

Copyright © 2004-2018 Karl L. Swartz. All rights reserved.
The Great Circle Mapper name and logo are trademarks of the Great Circle Mapper.
All other trademarks mentioned herein belong to their respective owners.
Please see credits for attibutions and further copyright information.

  Follow gcmap on Facebook Follow gcmap on Twitter Follow gcmap on Google+ GCmap on LinkedIn

hCard Microformat

Geo Microformat